Time;durP1;ratioP1;P1;durP2;ratioP2;P2;SDS_P1;SDS_P2;PMS_P1;PMS_P2;Temp;Humidity;BMP_temperature;BMP_pressure;BME280_temperature;BME280_humidity;BME280_pressure;Samples;Min_cycle;Max_cycle;Signal;HPM_P1;HPM_P2
2021/11/24 00:04:32;;;;;;;32.60;19.05;;;;;;;6.07;100.00;103367.09;10589165;28;20044;-60
2021/11/24 00:09:34;;;;;;;19.02;13.75;;;;;;;6.09;100.00;103361.91;10589613;28;20048;-60
2021/11/24 00:14:37;;;;;;;28.77;15.10;;;;;;;5.72;100.00;103349.59;10588847;28;20044;-59
2021/11/24 00:19:39;;;;;;;33.75;17.63;;;;;;;5.71;100.00;103339.19;10588238;28;20048;-59
2021/11/24 00:24:42;;;;;;;24.25;16.60;;;;;;;5.94;100.00;103350.53;10588313;28;20503;-59
2021/11/24 00:29:44;;;;;;;18.55;14.05;;;;;;;5.83;100.00;103341.84;10587828;28;20410;-59
2021/11/24 00:34:47;;;;;;;23.20;14.38;;;;;;;5.70;100.00;103342.66;10587698;28;20487;-59
2021/11/24 00:39:49;;;;;;;20.58;13.95;;;;;;;5.54;100.00;103329.59;10587617;28;20537;-58
2021/11/24 00:44:51;;;;;;;38.83;18.48;;;;;;;5.62;100.00;103331.38;10587673;28;20130;-61
2021/11/24 00:49:54;;;;;;;20.45;15.25;;;;;;;5.18;100.00;103310.38;10587516;28;20043;-59
2021/11/24 00:54:57;;;;;;;35.05;18.30;;;;;;;5.18;100.00;103306.94;10587288;28;20047;-61
2021/11/24 00:59:59;;;;;;;31.05;16.27;;;;;;;5.10;100.00;103304.28;10587954;28;20121;-59
2021/11/24 01:05:02;;;;;;;29.15;15.70;;;;;;;5.14;100.00;103302.56;10587063;28;20047;-59
2021/11/24 01:10:09;;;;;;;27.55;17.48;;;;;;;5.18;100.00;103309.53;10586963;28;20096;-60
2021/11/24 01:15:12;;;;;;;48.70;21.95;;;;;;;5.17;100.00;103293.06;10586378;28;20043;-60
2021/11/24 01:20:15;;;;;;;44.33;20.80;;;;;;;5.25;100.00;103305.25;10567999;28;20047;-59
2021/11/24 01:25:17;;;;;;;33.50;17.92;;;;;;;5.38;100.00;103309.63;10568059;28;20051;-58
2021/11/24 01:30:20;;;;;;;35.83;20.20;;;;;;;5.16;100.00;103300.84;10585643;28;20058;-60
2021/11/24 01:35:23;;;;;;;36.35;19.30;;;;;;;5.27;100.00;103295.72;10585874;28;20044;-58
2021/11/24 01:40:25;;;;;;;25.05;13.93;;;;;;;5.14;100.00;103299.97;10585142;28;20055;-58
2021/11/24 01:45:27;;;;;;;44.08;21.60;;;;;;;4.87;100.00;103278.16;10586064;28;20055;-58
2021/11/24 01:50:30;;;;;;;26.15;17.17;;;;;;;5.08;100.00;103285.22;10585309;28;20044;-59
2021/11/24 01:55:32;;;;;;;31.38;19.83;;;;;;;5.34;100.00;103300.94;10584583;28;20052;-59
2021/11/24 02:00:36;;;;;;;34.80;20.90;;;;;;;5.40;100.00;103294.91;10583939;28;20054;-59
2021/11/24 02:05:38;;;;;;;21.20;16.02;;;;;;;5.42;100.00;103284.53;10584966;28;20055;-58
2021/11/24 02:10:40;;;;;;;27.42;17.25;;;;;;;5.54;100.00;103292.34;10584251;28;20396;-60
2021/11/24 02:15:43;;;;;;;26.58;15.50;;;;;;;5.38;100.00;103274.13;10583892;28;20407;-59
2021/11/24 02:20:47;;;;;;;27.40;16.02;;;;;;;5.64;100.00;103272.47;10583488;28;20066;-60
2021/11/24 02:25:50;;;;;;;23.83;17.73;;;;;;;5.83;100.00;103274.22;10583565;28;20050;-60
2021/11/24 02:30:52;;;;;;;58.60;24.00;;;;;;;5.62;100.00;103261.22;10583193;28;20043;-60
2021/11/24 02:35:54;;;;;;;37.55;20.67;;;;;;;5.67;100.00;103268.16;10564948;28;20044;-59
2021/11/24 02:40:57;;;;;;;45.30;21.60;;;;;;;5.70;100.00;103273.34;10582795;28;20404;-58
2021/11/24 02:45:59;;;;;;;40.38;23.63;;;;;;;5.87;100.00;103263.00;10583506;28;20059;-58
2021/11/24 02:51:02;;;;;;;23.52;19.00;;;;;;;6.01;100.00;103267.38;10582438;28;20048;-59
2021/11/24 02:56:05;;;;;;;28.48;21.48;;;;;;;5.97;100.00;103245.72;10582554;28;20398;-59
2021/11/24 03:01:07;;;;;;;64.60;30.27;;;;;;;5.97;100.00;103235.31;10581997;28;20067;-60
2021/11/24 03:06:10;;;;;;;48.70;27.48;;;;;;;5.93;100.00;103216.22;10582384;28;20055;-59
2021/11/24 03:11:12;;;;;;;27.70;22.08;;;;;;;5.96;100.00;103207.56;10581989;28;20062;-60
2021/11/24 03:16:15;;;;;;;55.17;32.70;;;;;;;5.94;100.00;103196.25;10564205;28;20043;-59
2021/11/24 03:21:18;;;;;;;33.30;25.23;;;;;;;5.74;100.00;103184.09;10582024;28;20510;-60
2021/11/24 03:26:20;;;;;;;46.28;29.00;;;;;;;5.99;100.00;103188.50;10564312;28;20051;-60
2021/11/24 03:31:23;;;;;;;35.03;26.02;;;;;;;5.88;100.00;103181.50;10581420;28;20051;-58
2021/11/24 03:36:25;;;;;;;64.95;35.50;;;;;;;5.88;100.00;103178.06;10581789;28;20044;-60
2021/11/24 03:41:27;;;;;;;41.38;27.02;;;;;;;5.95;100.00;103177.19;10581131;28;20052;-59
2021/11/24 03:46:30;;;;;;;31.65;24.83;;;;;;;5.95;100.00;103178.06;10581911;28;20044;-59
2021/11/24 03:51:32;;;;;;;65.60;34.63;;;;;;;5.95;100.00;103167.66;10580999;28;20048;-60
2021/11/24 03:56:34;;;;;;;46.53;29.17;;;;;;;5.93;100.00;103160.72;10581017;28;20052;-59
2021/11/24 04:01:37;;;;;;;72.32;35.15;;;;;;;6.30;100.00;103171.13;10581098;28;20048;-59
2021/11/24 04:06:39;;;;;;;48.10;30.77;;;;;;;6.07;100.00;103158.13;10563532;28;20561;-60
2021/11/24 04:11:42;;;;;;;61.97;34.80;;;;;;;6.09;100.00;103146.88;10580847;28;20044;-61
2021/11/24 04:16:44;;;;;;;39.95;26.13;;;;;;;6.16;100.00;103154.69;10581108;28;20047;-60
2021/11/24 04:21:46;;;;;;;42.92;28.38;;;;;;;6.05;100.00;103139.97;10582971;28;20043;-59
2021/11/24 04:26:49;;;;;;;48.08;28.85;;;;;;;6.30;100.00;103148.59;10588721;28;20097;-60
2021/11/24 04:31:51;;;;;;;59.38;31.40;;;;;;;6.29;100.00;103141.66;10587893;28;20046;-59
2021/11/24 04:36:54;;;;;;;39.28;26.52;;;;;;;5.90;100.00;103125.19;10588477;28;20043;-60
2021/11/24 04:41:56;;;;;;;48.75;28.75;;;;;;;6.05;100.00;103119.16;10587052;28;20056;-59
2021/11/24 04:46:59;;;;;;;52.45;29.50;;;;;;;5.75;100.00;103107.88;10587648;28;20098;-59
2021/11/24 04:52:01;;;;;;;41.53;28.27;;;;;;;6.01;100.00;103117.41;10587463;28;20050;-59
2021/11/24 04:57:04;;;;;;;48.72;29.10;;;;;;;5.88;100.00;103095.72;10587490;28;20403;-59
2021/11/24 05:02:06;;;;;;;49.25;29.38;;;;;;;6.00;100.00;103105.28;10586791;28;20507;-60
2021/11/24 05:07:09;;;;;;;51.40;30.02;;;;;;;5.98;100.00;103100.94;10586772;28;20048;-59
2021/11/24 05:12:28;;;;;;;36.78;24.60;;;;;;;5.79;100.00;103090.53;10586364;28;20123;-59
2021/11/24 05:17:33;;;;;;;37.60;24.83;;;;;;;5.92;100.00;103100.06;10568286;28;20051;-58
2021/11/24 05:22:35;;;;;;;40.85;27.35;;;;;;;5.75;100.00;103081.88;10585810;28;20407;-59
2021/11/24 05:27:37;;;;;;;38.58;26.00;;;;;;;5.94;100.00;103081.84;10586052;28;20047;-59
2021/11/24 05:32:40;;;;;;;24.35;18.55;;;;;;;6.11;100.00;103089.66;10584908;28;20040;-60
2021/11/24 05:37:42;;;;;;;36.85;22.08;;;;;;;6.10;100.00;103080.09;10585752;28;20395;-59
2021/11/24 05:42:50;;;;;;;27.58;19.25;;;;;;;5.99;100.00;103068.88;10585772;28;20051;-58
2021/11/24 05:47:58;;;;;;;37.47;19.52;;;;;;;6.01;100.00;103072.34;10585389;28;20043;-58
2021/11/24 05:53:18;;;;;;;38.80;22.65;;;;;;;6.02;100.00;103072.34;10584869;28;20445;-59
2021/11/24 05:58:21;;;;;;;42.45;25.23;;;;;;;5.90;100.00;103061.91;10585036;28;20063;-59
2021/11/24 06:03:24;;;;;;;43.70;22.63;;;;;;;5.74;100.00;103051.53;10584313;28;20486;-60
2021/11/24 06:08:26;;;;;;;52.15;28.85;;;;;;;5.72;100.00;103040.28;10584362;28;20055;-58
2021/11/24 06:13:28;;;;;;;63.60;28.33;;;;;;;5.72;100.00;103031.63;10583857;28;20043;-58
2021/11/24 06:18:31;;;;;;;56.20;29.25;;;;;;;5.67;100.00;103034.22;10584681;28;20083;-59
2021/11/24 06:23:38;;;;;;;47.25;23.80;;;;;;;5.62;100.00;103030.75;10583176;28;20419;-58
2021/11/24 06:28:41;;;;;;;38.08;23.08;;;;;;;5.78;100.00;103044.59;10583808;28;20052;-59
2021/11/24 06:33:44;;;;;;;82.90;33.30;;;;;;;5.85;100.00;103042.84;10583575;28;20047;-60
2021/11/24 06:38:46;;;;;;;64.93;29.55;;;;;;;5.63;100.00;103031.63;10565133;28;20074;-60
2021/11/24 06:43:48;;;;;;;52.38;27.52;;;;;;;5.59;100.00;103017.75;10582466;28;20055;-60
2021/11/24 06:48:51;;;;;;;60.70;27.88;;;;;;;5.73;100.00;103023.81;10564710;28;20047;-60
2021/11/24 06:53:53;;;;;;;103.57;34.80;;;;;;;5.59;100.00;103031.63;10582688;28;20066;-60
2021/11/24 06:58:55;;;;;;;48.30;25.60;;;;;;;5.63;100.00;103026.41;10582762;28;20056;-59
2021/11/24 07:03:58;;;;;;;70.63;27.58;;;;;;;5.83;100.00;103029.84;10582047;28;20487;-59
2021/11/24 07:09:01;;;;;;;69.97;28.23;;;;;;;5.58;100.00;103021.22;10582504;28;20043;-59
2021/11/24 07:14:03;;;;;;;78.30;30.38;;;;;;;5.49;100.00;103016.91;10581828;28;20054;-60
2021/11/24 07:19:06;;;;;;;52.38;25.65;;;;;;;5.78;100.00;103023.78;10563964;28;20044;-59
2021/11/24 07:24:08;;;;;;;86.30;31.35;;;;;;;5.52;100.00;103019.50;10581781;28;20053;-59
2021/11/24 07:29:11;;;;;;;163.95;36.50;;;;;;;5.42;100.00;103022.13;10581425;28;20054;-59
2021/11/24 07:34:13;;;;;;;192.88;40.33;;;;;;;5.22;100.00;103008.25;10582044;28;20050;-59
2021/11/24 07:39:16;;;;;;;107.70;34.95;;;;;;;5.26;100.00;103016.94;10581512;28;20048;-59
2021/11/24 07:44:18;;;;;;;127.55;36.47;;;;;;;5.42;100.00;103011.72;10581804;28;20048;-59
2021/11/24 07:49:20;;;;;;;64.95;25.85;;;;;;;5.55;100.00;103022.09;10563347;28;20059;-58
2021/11/24 07:54:23;;;;;;;55.25;24.60;;;;;;;5.30;100.00;103003.06;10581584;28;20044;-60
2021/11/24 07:59:26;;;;;;;74.65;26.40;;;;;;;5.40;100.00;102998.72;10588226;28;20047;-59
2021/11/24 08:04:28;;;;;;;68.60;23.95;;;;;;;5.33;100.00;102990.06;10589446;28;20051;-60
2021/11/24 08:09:32;;;;;;;77.72;24.42;;;;;;;5.68;100.00;103004.78;10588953;28;20384;-60
2021/11/24 08:14:34;;;;;;;69.32;24.38;;;;;;;5.46;100.00;102979.66;10588938;28;20495;-59
2021/11/24 08:19:36;;;;;;;44.90;20.05;;;;;;;5.44;100.00;102987.47;10589108;28;20049;-59
2021/11/24 08:24:39;;;;;;;50.75;22.02;;;;;;;5.66;100.00;102988.28;10588673;28;20046;-59
2021/11/24 08:29:41;;;;;;;66.82;23.80;;;;;;;5.71;100.00;102980.50;10588433;28;20052;-59
2021/11/24 08:34:43;;;;;;;52.35;21.42;;;;;;;5.95;100.00;102984.75;10588616;28;20067;-60
2021/11/24 08:39:48;;;;;;;49.58;19.23;;;;;;;5.87;100.00;102961.41;10587828;28;20044;-59
2021/11/24 08:44:50;;;;;;;54.85;20.17;;;;;;;6.16;100.00;102964.81;10588171;28;20051;-59
2021/11/24 08:49:54;;;;;;;53.72;21.00;;;;;;;6.02;100.00;102970.03;10587028;28;20050;-59
2021/11/24 08:54:56;;;;;;;40.80;21.63;;;;;;;5.97;100.00;102945.78;10587211;28;20043;-59
2021/11/24 08:59:58;;;;;;;30.95;16.83;;;;;;;6.03;100.00;102962.22;10587016;28;20399;-60
2021/11/24 09:05:02;;;;;;;34.65;16.15;;;;;;;6.37;100.00;102963.81;10587672;28;20058;-59
2021/11/24 09:10:06;;;;;;;36.75;17.45;;;;;;;6.60;100.00;102971.50;10586471;28;20047;-60
2021/11/24 09:15:09;;;;;;;28.25;14.32;;;;;;;6.52;100.00;102971.53;10586269;28;20054;-61
2021/11/24 09:20:33;;;;;;;24.27;13.70;;;;;;;6.50;100.00;102955.94;10586407;28;20055;-61
2021/11/24 09:25:48;;;;;;;24.50;14.43;;;;;;;6.30;100.00;102945.66;10586247;28;20071;-60
2021/11/24 09:30:50;;;;;;;28.30;14.15;;;;;;;6.42;100.00;102947.34;10569969;28;20047;-60
2021/11/24 09:35:53;;;;;;;23.52;13.05;;;;;;;6.56;100.00;102957.66;10585766;28;20043;-60
2021/11/24 09:40:57;;;;;;;25.65;13.18;;;;;;;6.69;100.00;102958.41;10567624;28;20051;-62
2021/11/24 09:46:00;;;;;;;37.13;17.25;;;;;;;6.72;100.00;102948.00;10567665;28;20063;-60
2021/11/24 09:51:04;;;;;;;38.55;20.25;;;;;;;6.51;100.00;102934.25;10584934;28;20054;-60
2021/11/24 09:56:07;;;;;;;38.53;20.42;;;;;;;6.45;100.00;102920.41;10585103;28;20039;-59
2021/11/24 10:01:09;;;;;;;42.58;21.73;;;;;;;6.53;100.00;102912.56;10584622;28;20054;-59
2021/11/24 10:06:12;;;;;;;45.22;22.77;;;;;;;6.63;100.00;103008.78;10566324;28;20089;-59
2021/11/24 10:11:34;;;;;;;31.50;17.45;;;;;;;6.81;100.00;102979.19;10583791;28;20506;-60
2021/11/24 10:16:36;;;;;;;51.72;23.05;;;;;;;6.95;100.00;102970.41;10566113;28;20059;-60
2021/11/24 10:22:00;;;;;;;45.97;22.00;;;;;;;6.85;100.00;102962.66;10565662;28;20078;-59
2021/11/24 10:27:08;;;;;;;42.58;22.13;;;;;;;6.85;100.00;102951.38;10565590;28;20505;-61
2021/11/24 10:32:30;;;;;;;36.88;20.83;;;;;;;6.93;100.00;102939.16;10583422;28;20047;-60
2021/11/24 10:37:32;;;;;;;36.55;19.83;;;;;;;6.76;100.00;102928.00;10583690;28;20047;-59
2021/11/24 10:42:36;;;;;;;36.08;19.77;;;;;;;6.96;100.00;102925.25;10582921;28;20138;-59
2021/11/24 10:47:56;;;;;;;40.35;19.70;;;;;;;6.97;100.00;102919.16;10582550;28;20410;-60
2021/11/24 10:52:59;;;;;;;26.45;16.20;;;;;;;6.97;100.00;102899.19;10564557;28;20054;-60
2021/11/24 10:58:05;;;;;;;26.48;16.85;;;;;;;7.15;100.00;102892.97;10582990;28;20052;-60
2021/11/24 11:03:10;;;;;;;29.98;15.75;;;;;;;7.44;100.00;102884.84;10582031;28;20475;-59
2021/11/24 11:08:17;;;;;;;32.45;18.20;;;;;;;7.34;100.00;102878.00;10582618;28;20081;-59
2021/11/24 11:13:36;;;;;;;30.15;18.60;;;;;;;7.53;100.00;102876.06;10566630;28;20073;-60
2021/11/24 11:18:39;;;;;;;29.95;18.00;;;;;;;7.63;100.00;102874.19;10582511;28;20055;-60
2021/11/24 11:23:45;;;;;;;26.75;16.13;;;;;;;7.50;100.00;102863.06;10547238;28;20047;-61
2021/11/24 11:28:50;;;;;;;28.88;16.20;;;;;;;7.57;100.00;102856.03;10582283;28;20044;-59
2021/11/24 11:33:59;;;;;;;24.60;16.20;;;;;;;7.70;100.00;102841.09;10570635;28;20478;-58
2021/11/24 11:39:03;;;;;;;26.00;16.63;;;;;;;7.75;100.00;102821.03;10590820;28;20047;-59
2021/11/24 11:44:07;;;;;;;27.77;17.60;;;;;;;7.56;100.00;102802.16;10590072;28;20054;-59
2021/11/24 11:49:31;;;;;;;25.05;15.57;;;;;;;7.40;100.00;102788.47;10575358;28;20051;-60
2021/11/24 11:54:33;;;;;;;27.23;17.48;;;;;;;7.70;100.00;102783.72;10590138;28;20122;-60
2021/11/24 11:59:38;;;;;;;27.23;17.45;;;;;;;7.76;100.00;102784.50;10589518;28;20445;-59
2021/11/24 12:04:50;;;;;;;22.90;15.40;;;;;;;7.78;100.00;102768.84;10589493;28;20050;-60
2021/11/24 12:09:55;;;;;;;24.63;15.20;;;;;;;7.66;100.00;102763.81;10589272;28;20118;-59
2021/11/24 12:15:10;;;;;;;24.20;16.08;;;;;;;7.39;100.00;102745.03;10589463;28;20483;-61
2021/11/24 12:20:39;;;;;;;22.05;14.93;;;;;;;7.23;100.00;102716.59;10588957;28;20051;-60
2021/11/24 12:26:03;;;;;;;27.23;15.60;;;;;;;7.49;100.00;102710.16;10588781;28;20059;-59
2021/11/24 12:31:11;;;;;;;27.75;15.90;;;;;;;7.38;100.00;102701.63;10588212;28;20044;-60
2021/11/24 12:36:21;;;;;;;24.98;15.07;;;;;;;7.38;100.00;102685.97;10588269;28;20056;-60
2021/11/24 12:41:26;;;;;;;29.98;17.98;;;;;;;7.40;100.00;102686.84;10587127;28;20062;-60
2021/11/24 12:46:38;;;;;;;30.48;16.65;;;;;;;7.30;100.00;102670.47;10587876;28;20043;-63
2021/11/24 12:51:48;;;;;;;25.92;15.38;;;;;;;7.41;100.00;102662.50;10587425;28;20047;-63
2021/11/24 12:56:56;;;;;;;23.75;15.65;;;;;;;7.41;100.00;102655.56;10570723;28;20123;-63
2021/11/24 13:02:10;;;;;;;25.52;16.83;;;;;;;7.32;100.00;102649.59;10587120;28;20055;-62
2021/11/24 13:07:22;;;;;;;29.48;15.70;;;;;;;7.34;100.00;102646.06;10587239;28;20044;-62
2021/11/24 13:12:26;;;;;;;27.33;15.55;;;;;;;6.96;100.00;102626.63;10586299;28;20039;-63
2021/11/24 13:17:30;;;;;;;22.00;14.07;;;;;;;7.40;100.00;102632.97;10586407;28;20505;-62
2021/11/24 13:22:38;;;;;;;24.23;14.63;;;;;;;7.56;100.00;102633.59;10567824;28;20503;-63
2021/11/24 13:27:51;;;;;;;26.90;16.15;;;;;;;7.61;100.00;102626.56;10585963;28;20392;-64
2021/11/24 13:33:13;;;;;;;27.30;16.83;;;;;;;7.43;100.00;102606.88;10585848;28;20039;-63
2021/11/24 13:38:26;;;;;;;;;;;;;;;7.44;100.00;102595.53;10586009;28;20410;-62
2021/11/24 13:43:37;;;;;;;28.95;17.92;;;;;;;7.42;100.00;102623.38;10584857;28;19927;-60
2021/11/24 13:48:39;;;;;;;33.97;19.17;;;;;;;7.36;100.00;102609.56;10583419;28;20054;-61
2021/11/24 13:53:42;;;;;;;32.50;18.23;;;;;;;7.31;100.00;102585.34;10584023;28;20039;-60
2021/11/24 13:59:33;;;;;;;34.55;19.38;;;;;;;7.34;100.00;102574.88;10584631;28;20403;-61
2021/11/24 14:04:39;;;;;;;30.03;18.07;;;;;;;7.33;100.00;102575.75;10578982;28;20434;-61
2021/11/24 14:09:58;;;;;;;35.35;19.90;;;;;;;7.31;100.00;102572.31;10583015;28;20040;-61
2021/11/24 14:15:27;;;;;;;27.27;18.17;;;;;;;7.33;100.00;102558.38;10566348;28;20039;-61
2021/11/24 14:20:39;;;;;;;35.05;20.33;;;;;;;7.21;100.00;102541.19;10583852;28;20300;-60
2021/11/24 14:25:48;;;;;;;38.67;20.02;;;;;;;7.20;100.00;102551.63;10583774;28;20062;-61
2021/11/24 14:30:52;;;;;;;33.00;19.88;;;;;;;7.08;100.00;102518.81;10583407;28;20062;-62
2021/11/24 14:35:55;;;;;;;33.13;19.88;;;;;;;7.16;100.00;102516.09;10583843;28;20043;-60
2021/11/24 14:40:58;;;;;;;31.92;18.02;;;;;;;7.10;100.00;102505.78;10583545;28;20502;-61
2021/11/24 14:46:00;;;;;;;40.65;21.10;;;;;;;6.99;100.00;102483.38;10583232;28;20506;-60
2021/11/24 14:51:02;;;;;;;30.33;19.13;;;;;;;7.05;100.00;102490.22;10582717;28;20054;-60
2021/11/24 14:56:05;;;;;;;35.15;19.00;;;;;;;6.98;100.00;102480.78;10582555;28;20054;-59
2021/11/24 15:01:11;;;;;;;33.35;19.65;;;;;;;6.98;100.00;102471.22;10583020;28;20082;-58
2021/11/24 15:06:14;;;;;;;33.88;19.33;;;;;;;6.96;100.00;102459.97;10582329;28;20089;-59
2021/11/24 15:11:17;;;;;;;39.80;21.05;;;;;;;7.04;100.00;102450.31;10582013;28;20491;-61
2021/11/24 15:16:21;;;;;;;35.80;20.70;;;;;;;6.80;100.00;102440.25;10582489;28;20487;-59
2021/11/24 15:21:42;;;;;;;40.38;21.58;;;;;;;6.85;100.00;102428.88;10582105;28;20052;-60
2021/11/24 15:26:47;;;;;;;35.28;20.67;;;;;;;6.76;100.00;102418.63;10581898;28;20069;-59
2021/11/24 15:31:51;;;;;;;38.80;20.33;;;;;;;6.73;100.00;102410.00;10581755;28;20092;-60
2021/11/24 15:36:54;;;;;;;36.90;20.05;;;;;;;6.66;100.00;102404.88;10581464;28;20505;-60
2021/11/24 15:41:57;;;;;;;42.15;20.10;;;;;;;6.79;100.00;102400.34;10581450;28;20497;-59
2021/11/24 15:47:03;;;;;;;38.15;20.48;;;;;;;6.55;100.00;102383.34;10581743;28;20438;-61
2021/11/24 15:52:07;;;;;;;34.47;19.52;;;;;;;6.54;100.00;102388.59;10563131;28;20506;-60
2021/11/24 15:57:11;;;;;;;39.33;21.42;;;;;;;6.58;100.00;102396.34;10580991;28;20054;-61
2021/11/24 16:02:15;;;;;;;45.45;21.83;;;;;;;6.46;100.00;102379.16;10563303;28;20047;-60
2021/11/24 16:07:18;;;;;;;48.03;21.70;;;;;;;6.44;100.00;102372.25;10581526;28;20100;-60
2021/11/24 16:12:21;;;;;;;39.75;20.73;;;;;;;6.37;100.00;102368.03;10580685;28;20407;-60
2021/11/24 16:17:23;;;;;;;47.85;21.48;;;;;;;6.40;100.00;102353.22;10582529;28;20491;-59
2021/11/24 16:22:25;;;;;;;47.42;23.52;;;;;;;6.52;100.00;102362.59;10588488;28;20483;-60
2021/11/24 16:27:28;;;;;;;43.10;21.95;;;;;;;6.28;100.00;102343.84;10588899;28;20046;-60
2021/11/24 16:32:30;;;;;;;51.22;24.55;;;;;;;6.48;100.00;102353.97;10587948;28;20046;-58
2021/11/24 16:37:33;;;;;;;43.33;22.75;;;;;;;6.43;100.00;102334.97;10588212;28;20055;-60
2021/11/24 16:42:37;;;;;;;42.60;20.35;;;;;;;6.25;100.00;102325.69;10588319;28;20131;-59
2021/11/24 16:47:40;;;;;;;44.00;22.60;;;;;;;6.31;100.00;102319.56;10587583;28;20047;-59
2021/11/24 16:52:43;;;;;;;44.85;22.70;;;;;;;6.35;100.00;102323.81;10587176;28;20047;-59
2021/11/24 16:57:46;;;;;;;53.40;25.23;;;;;;;6.15;100.00;102308.50;10587855;28;20046;-61
2021/11/24 17:02:48;;;;;;;46.97;24.52;;;;;;;6.25;100.00;102336.09;10587499;28;20062;-60
2021/11/24 17:07:51;;;;;;;53.15;23.83;;;;;;;6.09;100.00;102314.66;10569005;28;20086;-59
2021/11/24 17:12:56;;;;;;;54.47;24.10;;;;;;;6.11;100.00;102296.44;10586905;28;20044;-61
2021/11/24 17:18:00;;;;;;;48.47;24.33;;;;;;;6.11;100.00;102292.09;10552892;28;20054;-60
2021/11/24 17:23:09;;;;;;;47.53;24.75;;;;;;;6.09;100.00;102280.00;10568487;28;20062;-60
2021/11/24 17:28:14;;;;;;;62.88;27.95;;;;;;;6.05;100.00;102265.31;10568610;28;20048;-59
2021/11/24 17:33:16;;;;;;;62.08;27.58;;;;;;;6.02;100.00;102260.16;10586139;28;20599;-59
2021/11/24 17:38:20;;;;;;;87.15;31.52;;;;;;;6.01;100.00;102259.31;10585597;28;20399;-59
2021/11/24 17:43:22;;;;;;;60.65;26.70;;;;;;;6.09;100.00;102259.22;10585594;28;20240;-59
2021/11/24 17:48:26;;;;;;;68.13;30.30;;;;;;;6.07;100.00;102253.16;10585294;28;20048;-59
2021/11/24 17:53:28;;;;;;;79.88;32.85;;;;;;;5.94;100.00;102231.66;10584936;28;20051;-59
2021/11/24 17:58:30;;;;;;;86.85;32.40;;;;;;;5.96;100.00;102224.72;10584683;28;20070;-60
2021/11/24 18:03:33;;;;;;;100.22;36.78;;;;;;;5.98;100.00;102334.75;10584662;28;20055;-60
2021/11/24 18:08:35;;;;;;;97.53;37.20;;;;;;;5.89;100.00;102249.91;10584509;28;20050;-60
2021/11/24 18:13:38;;;;;;;91.22;37.72;;;;;;;5.78;100.00;102233.63;10584026;28;20479;-61
2021/11/24 18:18:40;;;;;;;88.65;33.50;;;;;;;5.65;100.00;102219.94;10584000;28;20483;-61
2021/11/24 18:23:47;;;;;;;98.57;40.45;;;;;;;5.54;100.00;102212.28;10583664;28;20525;-60
2021/11/24 18:28:49;;;;;;;105.75;41.00;;;;;;;5.59;100.00;102214.84;10583607;28;20048;-59
2021/11/24 18:33:51;;;;;;;98.70;41.20;;;;;;;5.50;100.00;102207.19;10583205;28;20407;-60
2021/11/24 18:38:54;;;;;;;91.07;38.15;;;;;;;5.79;100.00;102219.75;10583198;28;20047;-60
2021/11/24 18:43:59;;;;;;;119.80;38.63;;;;;;;5.66;100.00;102207.81;10582570;28;20055;-60
2021/11/24 18:49:01;;;;;;;111.70;42.28;;;;;;;5.64;100.00;102202.63;10582783;28;20398;-59
2021/11/24 18:54:05;;;;;;;125.28;43.35;;;;;;;5.58;100.00;102207.91;10582628;28;20047;-62
2021/11/24 18:59:12;;;;;;;97.03;36.13;;;;;;;5.77;100.00;102217.16;10583165;28;20044;-60
2021/11/24 19:04:15;;;;;;;114.03;42.63;;;;;;;5.35;100.00;102197.84;10582142;28;20047;-58
2021/11/24 19:09:17;;;;;;;122.97;43.03;;;;;;;5.38;100.00;102190.03;10582035;28;20530;-59
2021/11/24 19:14:20;;;;;;;120.35;42.55;;;;;;;5.42;100.00;102186.50;10582372;28;20044;-59
2021/11/24 19:19:22;;;;;;;112.20;43.50;;;;;;;5.44;100.00;102184.72;10581994;28;20054;-60
2021/11/24 19:24:25;;;;;;;114.47;41.25;;;;;;;5.49;100.00;102177.72;10582157;28;20047;-59
2021/11/24 19:29:27;;;;;;;120.72;44.45;;;;;;;5.46;100.00;102175.16;10581976;28;20070;-59
2021/11/24 19:34:29;;;;;;;113.43;42.85;;;;;;;5.51;100.00;102162.97;10581576;28;20464;-59
2021/11/24 19:39:32;;;;;;;121.20;42.92;;;;;;;5.56;100.00;102163.78;10581410;28;20492;-60
2021/11/24 19:44:35;;;;;;;108.68;41.72;;;;;;;5.44;100.00;102161.34;10581546;28;20407;-58
2021/11/24 19:49:42;;;;;;;102.80;40.55;;;;;;;5.41;100.00;102148.41;10581239;28;20450;-60
2021/11/24 19:54:44;;;;;;;101.10;39.13;;;;;;;5.63;100.00;102145.50;10587238;28;20047;-59
2021/11/24 19:59:47;;;;;;;104.65;39.30;;;;;;;5.48;100.00;102129.25;10589467;28;20402;-60
2021/11/24 20:04:49;;;;;;;107.93;40.45;;;;;;;5.70;100.00;102147.97;10589674;28;20039;-61
2021/11/24 20:09:52;;;;;;;104.43;40.10;;;;;;;5.52;100.00;102130.91;10589539;28;20051;-61
2021/11/24 20:14:55;;;;;;;100.50;40.45;;;;;;;5.51;100.00;102136.13;10571280;28;20051;-61
2021/11/24 20:19:57;;;;;;;85.82;35.60;;;;;;;5.35;100.00;102125.97;10588608;28;20412;-59
2021/11/24 20:25:00;;;;;;;85.15;34.70;;;;;;;5.35;100.00;102128.56;10588390;28;20392;-60
2021/11/24 20:30:04;;;;;;;85.28;33.03;;;;;;;5.46;100.00;102120.63;10588324;28;20097;-60
2021/11/24 20:35:07;;;;;;;89.72;34.97;;;;;;;5.43;100.00;102105.09;10588116;28;20399;-60
2021/11/24 20:40:10;;;;;;;92.72;36.85;;;;;;;5.48;100.00;102111.09;10588548;28;20122;-60
2021/11/24 20:45:14;;;;;;;102.35;36.42;;;;;;;5.39;100.00;102100.81;10588019;28;20051;-60
2021/11/24 20:50:18;;;;;;;90.47;37.25;;;;;;;5.34;100.00;102090.50;10587923;28;20438;-59
2021/11/24 20:55:21;;;;;;;84.72;35.08;;;;;;;5.35;100.00;102074.03;10570637;28;20086;-60
2021/11/24 21:00:23;;;;;;;70.72;30.27;;;;;;;5.56;100.00;102083.25;10587054;28;20515;-60
2021/11/24 21:05:27;;;;;;;100.68;37.42;;;;;;;5.32;100.00;102068.03;10586881;28;20044;-61
2021/11/24 21:10:30;;;;;;;89.80;34.35;;;;;;;5.44;100.00;102064.38;10586529;28;20376;-60
2021/11/24 21:15:32;;;;;;;89.88;34.20;;;;;;;5.34;100.00;102051.53;10586967;28;20047;-59
2021/11/24 21:20:34;;;;;;;102.07;33.80;;;;;;;5.48;100.00;102047.84;10586748;28;20047;-59
2021/11/24 21:25:40;;;;;;;104.25;34.80;;;;;;;5.24;100.00;102046.50;10586215;28;20516;-60
2021/11/24 21:30:42;;;;;;;92.35;34.38;;;;;;;5.18;100.00;102037.09;10586289;28;20039;-59
2021/11/24 21:35:45;;;;;;;95.72;35.47;;;;;;;5.12;100.00;102032.81;10585805;28;20506;-59
2021/11/24 21:40:50;;;;;;;80.30;29.60;;;;;;;5.35;100.00;102029.88;10585908;28;20453;-60
2021/11/24 21:45:52;;;;;;;89.07;32.00;;;;;;;5.11;100.00;102025.06;10585801;28;20051;-60
2021/11/24 21:51:13;;;;;;;84.63;31.47;;;;;;;5.09;100.00;102016.44;10584933;28;20043;-59
2021/11/24 21:56:16;;;;;;;98.22;34.33;;;;;;;4.87;100.00;101995.13;10585618;28;20051;-58
2021/11/24 22:01:19;;;;;;;75.50;29.98;;;;;;;4.70;100.00;101982.41;10584444;28;20509;-59
2021/11/24 22:06:22;;;;;;;94.50;33.60;;;;;;;4.44;100.00;101961.13;10584531;28;20490;-59
2021/11/24 22:11:37;;;;;;;86.85;35.22;;;;;;;4.19;100.00;101945.03;10584379;28;20051;-59
2021/11/24 22:16:42;;;;;;;73.82;30.75;;;;;;;4.13;100.00;101950.28;10583562;28;20048;-60
2021/11/24 22:21:45;;;;;;;82.43;31.75;;;;;;;3.60;100.00;101931.88;10584289;28;20058;-59
2021/11/24 22:26:47;;;;;;;82.43;30.40;;;;;;;3.67;100.00;101920.56;10583820;28;20389;-60
2021/11/24 22:31:49;;;;;;;63.35;29.55;;;;;;;3.46;100.00;101929.44;10583448;28;20089;-61
2021/11/24 22:36:52;;;;;;;70.45;27.83;;;;;;;3.35;100.00;101924.34;10565583;28;20040;-59
2021/11/24 22:41:54;;;;;;;66.30;26.60;;;;;;;3.10;100.00;101925.44;10582897;28;20049;-61
2021/11/24 22:46:57;;;;;;;58.70;24.35;;;;;;;3.00;100.00;101923.78;10583161;28;20047;-60
2021/11/24 22:51:59;;;;;;;47.92;23.35;;;;;;;3.21;100.00;101920.16;10582694;28;20050;-60